Terminal Aerodrome Forecast
Issued by NWS

Home | Current Version | Previous Version | Text Only | Print | Product List | Glossary On
Versions: 1 2 3 4 5 6 7 8 9 10 11 12 13 14 15 16
000
FTUS45 KABQ 032342
TAFGUP
TAF
KGUP 032342Z 0400/0424 21010KT P6SM VCTS SCT080CB BKN150
      TEMPO 0400/0403 VRB15G30KT -TSRA BKN060CB
     FM040300 20011KT P6SM VCSH BKN080
     FM040700 VRB03KT P6SM BKN080
     FM041800 24007KT P6SM FEW060
     FM042200 25010KT P6SM VCTS SCT060CB BKN120=

USA.gov is the U.S. government's official web portal to all federal, state and local government web resources and services.